sensor_id;sensor_type;location;lat;lon;timestamp;pressure;altitude;pressure_sealevel;temperature;humidity
46303;BME280;32029;51.358;5.628;2023-07-20T00:01:51;101138.19;;;20.34;75.83
46303;BME280;32029;51.358;5.628;2023-07-20T00:04:18;101148.25;;;20.35;75.63
46303;BME280;32029;51.358;5.628;2023-07-20T00:06:44;101142.09;;;20.21;76.29
46303;BME280;32029;51.358;5.628;2023-07-20T00:09:11;101129.38;;;20.14;76.50
46303;BME280;32029;51.358;5.628;2023-07-20T00:11:39;101132.19;;;20.02;76.71
46303;BME280;32029;51.358;5.628;2023-07-20T00:14:06;101154.31;;;20.08;77.30
46303;BME280;32029;51.358;5.628;2023-07-20T00:16:32;101136.03;;;19.89;77.33
46303;BME280;32029;51.358;5.628;2023-07-20T00:18:59;101150.56;;;19.91;77.49
46303;BME280;32029;51.358;5.628;2023-07-20T00:21:26;101127.56;;;19.72;78.00
46303;BME280;32029;51.358;5.628;2023-07-20T00:23:53;101156.50;;;19.83;78.45
46303;BME280;32029;51.358;5.628;2023-07-20T00:26:19;101135.78;;;19.67;78.70
46303;BME280;32029;51.358;5.628;2023-07-20T00:28:48;101128.34;;;19.61;79.17
46303;BME280;32029;51.358;5.628;2023-07-20T00:31:15;101143.66;;;19.70;79.35
46303;BME280;32029;51.358;5.628;2023-07-20T00:33:41;101080.63;;;19.22;79.79
46303;BME280;32029;51.358;5.628;2023-07-20T00:36:08;101130.38;;;19.54;79.52
46303;BME280;32029;51.358;5.628;2023-07-20T00:38:35;101140.22;;;19.56;80.13
46303;BME280;32029;51.358;5.628;2023-07-20T00:41:02;101142.41;;;19.54;80.33
46303;BME280;32029;51.358;5.628;2023-07-20T00:43:29;101116.81;;;19.34;79.82
46303;BME280;32029;51.358;5.628;2023-07-20T00:45:55;101134.25;;;19.41;80.56
46303;BME280;32029;51.358;5.628;2023-07-20T00:48:23;101136.91;;;19.36;80.52
46303;BME280;32029;51.358;5.628;2023-07-20T00:50:50;101142.81;;;19.28;80.66
46303;BME280;32029;51.358;5.628;2023-07-20T00:53:17;101146.56;;;19.33;81.13
46303;BME280;32029;51.358;5.628;2023-07-20T00:55:44;101145.34;;;19.29;81.18
46303;BME280;32029;51.358;5.628;2023-07-20T00:58:10;101112.97;;;19.05;81.53
46303;BME280;32029;51.358;5.628;2023-07-20T01:00:37;101147.63;;;19.21;81.89
46303;BME280;32029;51.358;5.628;2023-07-20T01:03:04;101148.56;;;19.15;82.24
46303;BME280;32029;51.358;5.628;2023-07-20T01:12:08;101155.25;;;18.95;83.22
46303;BME280;32029;51.358;5.628;2023-07-20T01:14:40;101140.69;;;18.81;83.42
46303;BME280;32029;51.358;5.628;2023-07-20T01:17:06;101120.50;;;18.68;83.47
46303;BME280;32029;51.358;5.628;2023-07-20T01:19:33;101157.97;;;18.83;83.54
46303;BME280;32029;51.358;5.628;2023-07-20T01:28:12;101156.84;;;18.73;83.82
46303;BME280;32029;51.358;5.628;2023-07-20T01:30:55;101150.94;;;18.63;84.35
46303;BME280;32029;51.358;5.628;2023-07-20T01:33:26;101144.75;;;18.60;84.26
46303;BME280;32029;51.358;5.628;2023-07-20T01:35:58;101135.69;;;18.53;84.70
46303;BME280;32029;51.358;5.628;2023-07-20T01:38:26;101127.66;;;18.45;84.49
46303;BME280;32029;51.358;5.628;2023-07-20T01:40:53;101143.78;;;18.55;84.86
46303;BME280;32029;51.358;5.628;2023-07-20T01:43:19;101096.72;;;18.23;85.08
46303;BME280;32029;51.358;5.628;2023-07-20T01:45:46;101127.78;;;18.32;85.06
46303;BME280;32029;51.358;5.628;2023-07-20T01:48:13;101154.94;;;18.48;85.23
46303;BME280;32029;51.358;5.628;2023-07-20T01:50:39;101125.97;;;18.26;85.52
46303;BME280;32029;51.358;5.628;2023-07-20T01:53:06;101132.13;;;18.28;85.53
46303;BME280;32029;51.358;5.628;2023-07-20T01:55:33;101158.75;;;18.35;86.08
46303;BME280;32029;51.358;5.628;2023-07-20T01:57:59;101129.88;;;18.18;85.90
46303;BME280;32029;51.358;5.628;2023-07-20T02:00:27;101159.88;;;18.28;86.07
46303;BME280;32029;51.358;5.628;2023-07-20T02:02:54;101133.31;;;18.13;86.49
46303;BME280;32029;51.358;5.628;2023-07-20T02:05:20;101135.75;;;18.10;86.80
46303;BME280;32029;51.358;5.628;2023-07-20T02:07:47;101136.41;;;18.05;87.19
46303;BME280;32029;51.358;5.628;2023-07-20T02:10:14;101149.44;;;18.05;87.70
46303;BME280;32029;51.358;5.628;2023-07-20T02:12:40;101134.16;;;17.96;87.57
46303;BME280;32029;51.358;5.628;2023-07-20T02:15:07;101150.78;;;18.02;87.79
46303;BME280;32029;51.358;5.628;2023-07-20T02:17:35;101155.44;;;18.02;88.27
46303;BME280;32029;51.358;5.628;2023-07-20T02:20:01;101145.47;;;17.94;88.20
46303;BME280;32029;51.358;5.628;2023-07-20T02:22:28;101137.25;;;17.87;88.91
46303;BME280;32029;51.358;5.628;2023-07-20T02:24:55;101128.06;;;17.87;88.55
46303;BME280;32029;51.358;5.628;2023-07-20T02:27:21;101131.59;;;17.94;88.48
46303;BME280;32029;51.358;5.628;2023-07-20T02:29:48;101139.28;;;17.99;88.48
46303;BME280;32029;51.358;5.628;2023-07-20T02:32:15;101153.91;;;18.06;88.50
46303;BME280;32029;51.358;5.628;2023-07-20T02:34:41;101160.75;;;18.10;88.70
46303;BME280;32029;51.358;5.628;2023-07-20T02:37:08;101089.97;;;17.69;88.71
46303;BME280;32029;51.358;5.628;2023-07-20T02:39:35;101166.84;;;18.19;88.45
46303;BME280;32029;51.358;5.628;2023-07-20T02:42:01;101164.91;;;18.19;88.57
46303;BME280;32029;51.358;5.628;2023-07-20T02:44:28;101156.97;;;18.23;88.37
46303;BME280;32029;51.358;5.628;2023-07-20T02:46:55;101149.09;;;18.20;88.67
46303;BME280;32029;51.358;5.628;2023-07-20T02:49:21;101134.75;;;18.23;88.63
46303;BME280;32029;51.358;5.628;2023-07-20T02:51:48;101174.25;;;18.43;89.06
46303;BME280;32029;51.358;5.628;2023-07-20T02:54:15;101135.97;;;18.27;88.47
46303;BME280;32029;51.358;5.628;2023-07-20T02:56:45;101161.75;;;18.34;88.67
46303;BME280;32029;51.358;5.628;2023-07-20T02:59:11;101135.44;;;18.18;88.26
46303;BME280;32029;51.358;5.628;2023-07-20T03:01:38;101195.56;;;18.49;88.30
46303;BME280;32029;51.358;5.628;2023-07-20T03:04:05;101185.22;;;18.38;88.57
46303;BME280;32029;51.358;5.628;2023-07-20T03:06:31;101184.59;;;18.36;88.69
46303;BME280;32029;51.358;5.628;2023-07-20T03:09:02;101194.00;;;18.35;89.37
46303;BME280;32029;51.358;5.628;2023-07-20T03:11:33;101176.22;;;18.18;89.47
46303;BME280;32029;51.358;5.628;2023-07-20T03:14:00;101194.47;;;18.32;89.45
46303;BME280;32029;51.358;5.628;2023-07-20T03:16:27;101189.84;;;18.26;89.46
46303;BME280;32029;51.358;5.628;2023-07-20T03:18:54;101140.56;;;17.96;89.59
46303;BME280;32029;51.358;5.628;2023-07-20T03:21:21;101177.69;;;18.20;89.73
46303;BME280;32029;51.358;5.628;2023-07-20T03:23:48;101193.16;;;18.34;89.76
46303;BME280;32029;51.358;5.628;2023-07-20T03:26:14;101200.56;;;18.41;89.95
46303;BME280;32029;51.358;5.628;2023-07-20T03:28:41;101193.69;;;18.43;89.64
46303;BME280;32029;51.358;5.628;2023-07-20T03:31:08;101169.25;;;18.33;89.40
46303;BME280;32029;51.358;5.628;2023-07-20T03:33:34;101201.66;;;18.58;89.41
46303;BME280;32029;51.358;5.628;2023-07-20T03:36:01;101202.25;;;18.60;89.31
46303;BME280;32029;51.358;5.628;2023-07-20T03:38:28;101187.06;;;18.44;89.13
46303;BME280;32029;51.358;5.628;2023-07-20T03:40:57;101211.44;;;18.60;89.40
46303;BME280;32029;51.358;5.628;2023-07-20T03:43:25;101215.31;;;18.59;89.37
46303;BME280;32029;51.358;5.628;2023-07-20T03:45:52;101217.00;;;18.60;89.54
46303;BME280;32029;51.358;5.628;2023-07-20T03:48:22;101209.75;;;18.59;89.50
46303;BME280;32029;51.358;5.628;2023-07-20T03:50:52;101194.63;;;18.55;89.04
46303;BME280;32029;51.358;5.628;2023-07-20T03:53:19;101219.69;;;18.74;89.39
46303;BME280;32029;51.358;5.628;2023-07-20T03:55:50;101225.38;;;18.79;89.02
46303;BME280;32029;51.358;5.628;2023-07-20T03:58:18;101202.19;;;18.67;89.00
46303;BME280;32029;51.358;5.628;2023-07-20T04:00:45;101220.59;;;18.86;88.97
46303;BME280;32029;51.358;5.628;2023-07-20T04:03:13;101201.72;;;18.76;88.87
46303;BME280;32029;51.358;5.628;2023-07-20T04:05:40;101171.50;;;18.61;88.55
46303;BME280;32029;51.358;5.628;2023-07-20T04:08:07;101210.56;;;18.85;88.56
46303;BME280;32029;51.358;5.628;2023-07-20T04:10:33;101223.53;;;18.91;88.35
46303;BME280;32029;51.358;5.628;2023-07-20T04:13:00;101225.25;;;18.92;88.35
46303;BME280;32029;51.358;5.628;2023-07-20T04:15:27;101199.13;;;18.75;88.91
46303;BME280;32029;51.358;5.628;2023-07-20T04:17:54;101225.06;;;19.05;88.54
46303;BME280;32029;51.358;5.628;2023-07-20T04:20:23;101224.59;;;19.08;88.35
46303;BME280;32029;51.358;5.628;2023-07-20T04:22:50;101226.94;;;19.12;88.37
46303;BME280;32029;51.358;5.628;2023-07-20T04:25:18;101224.75;;;19.14;87.97
46303;BME280;32029;51.358;5.628;2023-07-20T04:27:45;101223.91;;;19.13;87.70
46303;BME280;32029;51.358;5.628;2023-07-20T04:30:12;101221.97;;;19.14;88.33
46303;BME280;32029;51.358;5.628;2023-07-20T04:32:39;101213.22;;;19.10;88.51
46303;BME280;32029;51.358;5.628;2023-07-20T04:35:10;101223.66;;;19.15;88.46
46303;BME280;32029;51.358;5.628;2023-07-20T04:37:37;101207.47;;;19.12;88.32
46303;BME280;32029;51.358;5.628;2023-07-20T04:40:04;101216.06;;;19.22;88.44
46303;BME280;32029;51.358;5.628;2023-07-20T04:42:31;101219.47;;;19.24;88.35
46303;BME280;32029;51.358;5.628;2023-07-20T04:44:58;101239.97;;;19.41;88.16
46303;BME280;32029;51.358;5.628;2023-07-20T04:47:24;101240.59;;;19.43;87.66
46303;BME280;32029;51.358;5.628;2023-07-20T04:49:51;101240.88;;;19.53;87.57
46303;BME280;32029;51.358;5.628;2023-07-20T04:52:21;101213.84;;;19.42;87.51
46303;BME280;32029;51.358;5.628;2023-07-20T04:54:47;101216.16;;;19.45;86.85
46303;BME280;32029;51.358;5.628;2023-07-20T04:57:14;101223.69;;;19.56;86.69
46303;BME280;32029;51.358;5.628;2023-07-20T04:59:41;101218.59;;;19.53;86.37
46303;BME280;32029;51.358;5.628;2023-07-20T05:02:07;101218.59;;;19.53;86.42
46303;BME280;32029;51.358;5.628;2023-07-20T05:04:34;101217.75;;;19.53;86.23
46303;BME280;32029;51.358;5.628;2023-07-20T05:07:01;101242.28;;;19.63;86.15
46303;BME280;32029;51.358;5.628;2023-07-20T05:09:27;101222.00;;;19.55;86.44
46303;BME280;32029;51.358;5.628;2023-07-20T05:11:55;101243.34;;;19.62;86.18
46303;BME280;32029;51.358;5.628;2023-07-20T05:14:22;101212.91;;;19.48;86.49
46303;BME280;32029;51.358;5.628;2023-07-20T05:16:48;101225.72;;;19.49;86.35
46303;BME280;32029;51.358;5.628;2023-07-20T05:19:15;101238.66;;;19.62;86.07
46303;BME280;32029;51.358;5.628;2023-07-20T05:21:42;101212.53;;;19.45;85.91
46303;BME280;32029;51.358;5.628;2023-07-20T05:24:08;101231.59;;;19.59;86.00
46303;BME280;32029;51.358;5.628;2023-07-20T05:26:35;101218.59;;;19.53;85.97
46303;BME280;32029;51.358;5.628;2023-07-20T05:29:02;101247.50;;;19.71;85.64
46303;BME280;32029;51.358;5.628;2023-07-20T05:31:28;101223.63;;;19.63;84.84
46303;BME280;32029;51.358;5.628;2023-07-20T05:33:57;101238.06;;;19.72;84.76
46303;BME280;32029;51.358;5.628;2023-07-20T05:36:24;101203.13;;;19.57;84.64
46303;BME280;32029;51.358;5.628;2023-07-20T05:38:50;101241.72;;;19.84;84.71
46303;BME280;32029;51.358;5.628;2023-07-20T05:41:17;101231.56;;;19.78;84.30
46303;BME280;32029;51.358;5.628;2023-07-20T05:43:44;101235.31;;;19.83;84.54
46303;BME280;32029;51.358;5.628;2023-07-20T05:46:10;101230.59;;;19.84;83.87
46303;BME280;32029;51.358;5.628;2023-07-20T05:48:37;101238.47;;;19.87;83.07
46303;BME280;32029;51.358;5.628;2023-07-20T05:51:04;101234.13;;;19.91;82.92
46303;BME280;32029;51.358;5.628;2023-07-20T05:53:31;101239.81;;;19.96;82.51
46303;BME280;32029;51.358;5.628;2023-07-20T05:55:57;101262.94;;;20.08;82.47
46303;BME280;32029;51.358;5.628;2023-07-20T05:58:24;101231.22;;;19.98;82.96
46303;BME280;32029;51.358;5.628;2023-07-20T06:00:51;101259.31;;;20.20;82.13
46303;BME280;32029;51.358;5.628;2023-07-20T06:03:17;101271.22;;;20.27;81.82
46303;BME280;32029;51.358;5.628;2023-07-20T06:05:45;101275.69;;;20.28;81.50
46303;BME280;32029;51.358;5.628;2023-07-20T06:08:11;101248.53;;;20.12;81.48
46303;BME280;32029;51.358;5.628;2023-07-20T06:10:38;101253.16;;;20.18;80.76
46303;BME280;32029;51.358;5.628;2023-07-20T06:13:05;101281.53;;;20.38;80.62
46303;BME280;32029;51.358;5.628;2023-07-20T06:15:33;101253.41;;;20.28;80.14
46303;BME280;32029;51.358;5.628;2023-07-20T06:18:01;101275.72;;;20.51;79.55
46303;BME280;32029;51.358;5.628;2023-07-20T06:20:28;101265.47;;;20.52;79.18
46303;BME280;32029;51.358;5.628;2023-07-20T06:22:54;101276.72;;;20.69;78.73
46303;BME280;32029;51.358;5.628;2023-07-20T06:25:21;101256.94;;;20.59;78.17
46303;BME280;32029;51.358;5.628;2023-07-20T06:27:49;101249.41;;;20.71;78.44
46303;BME280;32029;51.358;5.628;2023-07-20T06:30:18;101272.91;;;20.87;77.72
46303;BME280;32029;51.358;5.628;2023-07-20T06:32:44;101284.91;;;21.11;77.08
46303;BME280;32029;51.358;5.628;2023-07-20T06:35:11;101282.31;;;21.21;75.74
46303;BME280;32029;51.358;5.628;2023-07-20T06:37:38;101276.25;;;21.24;75.80
46303;BME280;32029;51.358;5.628;2023-07-20T06:40:05;101271.28;;;21.26;74.72
46303;BME280;32029;51.358;5.628;2023-07-20T06:42:32;101265.16;;;21.29;74.62
46303;BME280;32029;51.358;5.628;2023-07-20T06:44:59;101203.69;;;20.95;75.19
46303;BME280;32029;51.358;5.628;2023-07-20T06:47:26;101247.72;;;21.22;74.72
46303;BME280;32029;51.358;5.628;2023-07-20T06:49:52;101266.41;;;21.33;74.14
46303;BME280;32029;51.358;5.628;2023-07-20T06:52:19;101266.41;;;21.33;74.48
46303;BME280;32029;51.358;5.628;2023-07-20T06:54:46;101265.06;;;21.36;74.72
46303;BME280;32029;51.358;5.628;2023-07-20T06:57:12;101244.22;;;21.26;74.44
46303;BME280;32029;51.358;5.628;2023-07-20T06:59:39;101270.03;;;21.45;74.36
46303;BME280;32029;51.358;5.628;2023-07-20T07:02:06;101283.06;;;21.57;73.26
46303;BME280;32029;51.358;5.628;2023-07-20T07:04:32;101270.63;;;21.64;72.46
46303;BME280;32029;51.358;5.628;2023-07-20T07:06:59;101255.06;;;21.68;72.68
46303;BME280;32029;51.358;5.628;2023-07-20T07:09:26;101291.19;;;22.03;72.08
46303;BME280;32029;51.358;5.628;2023-07-20T07:11:53;101274.13;;;22.00;70.99
46303;BME280;32029;51.358;5.628;2023-07-20T07:14:20;101290.66;;;22.18;70.73
46303;BME280;32029;51.358;5.628;2023-07-20T07:16:47;101297.34;;;22.34;69.33
46303;BME280;32029;51.358;5.628;2023-07-20T07:19:14;101282.59;;;22.22;68.60
46303;BME280;32029;51.358;5.628;2023-07-20T07:21:41;101274.38;;;22.15;69.27
46303;BME280;32029;51.358;5.628;2023-07-20T07:24:07;101312.25;;;22.40;68.60
46303;BME280;32029;51.358;5.628;2023-07-20T07:26:36;101313.69;;;22.42;67.73
46303;BME280;32029;51.358;5.628;2023-07-20T07:29:03;101290.97;;;22.39;67.61
46303;BME280;32029;51.358;5.628;2023-07-20T07:31:30;101282.28;;;22.35;67.08
46303;BME280;32029;51.358;5.628;2023-07-20T07:33:57;101282.84;;;22.37;67.03
46303;BME280;32029;51.358;5.628;2023-07-20T07:36:23;101300.38;;;22.49;66.48
46303;BME280;32029;51.358;5.628;2023-07-20T07:38:51;101306.81;;;22.50;66.38
46303;BME280;32029;51.358;5.628;2023-07-20T07:41:18;101292.78;;;22.45;65.60
46303;BME280;32029;51.358;5.628;2023-07-20T07:43:44;101294.72;;;22.44;66.02
46303;BME280;32029;51.358;5.628;2023-07-20T07:46:11;101272.69;;;22.31;65.96
46303;BME280;32029;51.358;5.628;2023-07-20T07:48:38;101313.44;;;22.61;66.36
46303;BME280;32029;51.358;5.628;2023-07-20T07:51:05;101316.63;;;22.69;65.45
46303;BME280;32029;51.358;5.628;2023-07-20T07:53:32;101316.53;;;22.81;64.70
46303;BME280;32029;51.358;5.628;2023-07-20T07:55:59;101296.81;;;22.71;62.23
46303;BME280;32029;51.358;5.628;2023-07-20T07:58:25;101316.97;;;22.90;62.26
46303;BME280;32029;51.358;5.628;2023-07-20T08:00:52;101318.41;;;22.92;62.31
46303;BME280;32029;51.358;5.628;2023-07-20T08:03:19;101319.75;;;22.90;62.78
46303;BME280;32029;51.358;5.628;2023-07-20T08:05:46;101321.28;;;22.97;62.27
46303;BME280;32029;51.358;5.628;2023-07-20T08:08:12;101291.44;;;22.86;62.52
46303;BME280;32029;51.358;5.628;2023-07-20T08:10:39;101271.44;;;22.78;61.98
46303;BME280;32029;51.358;5.628;2023-07-20T08:13:06;101313.81;;;23.03;61.53
46303;BME280;32029;51.358;5.628;2023-07-20T08:15:32;101303.47;;;23.04;61.31
46303;BME280;32029;51.358;5.628;2023-07-20T08:17:59;101306.97;;;23.16;61.53
46303;BME280;32029;51.358;5.628;2023-07-20T08:20:26;101308.16;;;23.20;61.46
46303;BME280;32029;51.358;5.628;2023-07-20T08:22:54;101330.50;;;23.37;60.98
46303;BME280;32029;51.358;5.628;2023-07-20T08:25:21;101298.13;;;23.24;61.35
46303;BME280;32029;51.358;5.628;2023-07-20T08:27:48;101290.66;;;23.30;60.32
46303;BME280;32029;51.358;5.628;2023-07-20T08:30:14;101255.69;;;23.10;58.81
46303;BME280;32029;51.358;5.628;2023-07-20T08:32:41;101333.28;;;23.59;57.93
46303;BME280;32029;51.358;5.628;2023-07-20T08:35:08;101320.38;;;23.58;57.35
46303;BME280;32029;51.358;5.628;2023-07-20T08:37:35;101321.41;;;23.68;57.34
46303;BME280;32029;51.358;5.628;2023-07-20T08:40:02;101321.16;;;23.75;58.07
46303;BME280;32029;51.358;5.628;2023-07-20T08:42:35;101324.69;;;23.87;57.55
46303;BME280;32029;51.358;5.628;2023-07-20T08:45:06;101310.19;;;23.95;57.30
46303;BME280;32029;51.358;5.628;2023-07-20T08:47:35;101285.00;;;24.01;56.16
46303;BME280;32029;51.358;5.628;2023-07-20T08:50:03;101316.78;;;24.38;56.59
46303;BME280;32029;51.358;5.628;2023-07-20T08:52:34;101309.38;;;24.59;55.80
46303;BME280;32029;51.358;5.628;2023-07-20T08:55:01;101300.13;;;24.64;55.63
46303;BME280;32029;51.358;5.628;2023-07-20T08:57:32;101303.97;;;24.90;55.74
46303;BME280;32029;51.358;5.628;2023-07-20T09:00:02;101320.09;;;25.10;55.29
46303;BME280;32029;51.358;5.628;2023-07-20T09:02:35;101303.28;;;25.15;54.49
46303;BME280;32029;51.358;5.628;2023-07-20T09:05:05;101295.22;;;25.29;52.69
46303;BME280;32029;51.358;5.628;2023-07-20T09:07:33;101309.56;;;25.37;52.85
46303;BME280;32029;51.358;5.628;2023-07-20T09:10:02;101312.38;;;25.42;51.73
46303;BME280;32029;51.358;5.628;2023-07-20T09:12:35;101308.72;;;25.42;51.88
46303;BME280;32029;51.358;5.628;2023-07-20T09:15:02;101295.81;;;25.36;51.74
46303;BME280;32029;51.358;5.628;2023-07-20T09:17:28;101278.06;;;25.25;51.87
46303;BME280;32029;51.358;5.628;2023-07-20T09:19:55;101308.72;;;25.42;51.09
46303;BME280;32029;51.358;5.628;2023-07-20T09:22:29;101298.63;;;25.41;51.98
46303;BME280;32029;51.358;5.628;2023-07-20T09:25:00;101311.00;;;25.50;52.40
46303;BME280;32029;51.358;5.628;2023-07-20T09:27:37;101300.59;;;25.46;53.50
46303;BME280;32029;51.358;5.628;2023-07-20T09:30:05;101291.03;;;25.47;53.13
46303;BME280;32029;51.358;5.628;2023-07-20T09:32:48;101310.22;;;25.60;52.57
46303;BME280;32029;51.358;5.628;2023-07-20T09:35:16;101293.31;;;25.50;52.95
46303;BME280;32029;51.358;5.628;2023-07-20T09:37:48;101309.09;;;25.61;52.26
46303;BME280;32029;51.358;5.628;2023-07-20T09:40:19;101305.16;;;25.62;51.73
46303;BME280;32029;51.358;5.628;2023-07-20T09:42:47;101306.28;;;25.56;51.57
46303;BME280;32029;51.358;5.628;2023-07-20T09:45:14;101311.06;;;25.60;51.58
46303;BME280;32029;51.358;5.628;2023-07-20T09:47:41;101304.56;;;25.55;51.12
46303;BME280;32029;51.358;5.628;2023-07-20T09:50:08;101288.81;;;25.49;51.56
46303;BME280;32029;51.358;5.628;2023-07-20T09:52:41;101295.59;;;25.58;51.52
46303;BME280;32029;51.358;5.628;2023-07-20T09:55:10;101284.06;;;25.54;51.20
46303;BME280;32029;51.358;5.628;2023-07-20T09:57:39;101302.66;;;25.71;50.03
46303;BME280;32029;51.358;5.628;2023-07-20T10:00:07;101297.03;;;25.71;50.38
46303;BME280;32029;51.358;5.628;2023-07-20T10:02:44;101291.75;;;25.84;50.13
46303;BME280;32029;51.358;5.628;2023-07-20T10:05:12;101285.03;;;25.90;50.68
46303;BME280;32029;51.358;5.628;2023-07-20T10:07:44;101290.38;;;26.07;50.81
46303;BME280;32029;51.358;5.628;2023-07-20T10:10:15;101288.69;;;26.17;50.18
46303;BME280;32029;51.358;5.628;2023-07-20T10:12:52;101288.97;;;26.20;49.68
46303;BME280;32029;51.358;5.628;2023-07-20T10:15:24;101259.16;;;26.09;49.41
46303;BME280;32029;51.358;5.628;2023-07-20T10:20:35;101258.88;;;26.05;47.39
46303;BME280;32029;51.358;5.628;2023-07-20T10:23:04;101283.91;;;26.07;48.11
46303;BME280;32029;51.358;5.628;2023-07-20T10:25:30;101263.66;;;25.95;49.44
46303;BME280;32029;51.358;5.628;2023-07-20T10:27:59;101244.81;;;26.00;50.06
46303;BME280;32029;51.358;5.628;2023-07-20T10:30:26;101252.41;;;26.15;49.22
46303;BME280;32029;51.358;5.628;2023-07-20T10:32:53;101272.09;;;26.40;49.03
46303;BME280;32029;51.358;5.628;2023-07-20T10:35:20;101264.81;;;26.50;48.83
46303;BME280;32029;51.358;5.628;2023-07-20T10:37:59;101268.41;;;26.71;49.65
46303;BME280;32029;51.358;5.628;2023-07-20T10:40:56;101272.03;;;26.86;47.70
46303;BME280;32029;51.358;5.628;2023-07-20T10:43:22;101268.66;;;26.90;45.70
46303;BME280;32029;51.358;5.628;2023-07-20T10:45:51;101249.28;;;26.73;45.59
46303;BME280;32029;51.358;5.628;2023-07-20T10:48:22;101246.16;;;26.84;44.95
46303;BME280;32029;51.358;5.628;2023-07-20T10:51:11;101259.06;;;26.91;45.71
46303;BME280;32029;51.358;5.628;2023-07-20T10:53:40;101251.50;;;26.86;45.78
46303;BME280;32029;51.358;5.628;2023-07-20T10:56:20;101240.56;;;26.74;45.17
46303;BME280;32029;51.358;5.628;2023-07-20T10:58:47;101232.94;;;26.80;45.26
46303;BME280;32029;51.358;5.628;2023-07-20T11:01:16;101203.38;;;26.77;45.59
46303;BME280;32029;51.358;5.628;2023-07-20T11:03:48;101249.13;;;27.19;44.35
46303;BME280;32029;51.358;5.628;2023-07-20T11:09:03;101247.34;;;27.43;43.50
46303;BME280;32029;51.358;5.628;2023-07-20T11:11:33;101236.66;;;27.40;43.85
46303;BME280;32029;51.358;5.628;2023-07-20T11:14:01;101240.84;;;27.48;43.27
46303;BME280;32029;51.358;5.628;2023-07-20T11:16:35;101252.91;;;27.58;41.69
46303;BME280;32029;51.358;5.628;2023-07-20T11:19:04;101247.84;;;27.55;41.91
46303;BME280;32029;51.358;5.628;2023-07-20T11:21:40;101243.66;;;27.48;42.44
46303;BME280;32029;51.358;5.628;2023-07-20T11:24:07;101240.28;;;27.46;42.20
46303;BME280;32029;51.358;5.628;2023-07-20T11:26:48;101241.94;;;27.52;41.92
46303;BME280;32029;51.358;5.628;2023-07-20T11:29:18;101232.72;;;27.36;41.13
46303;BME280;32029;51.358;5.628;2023-07-20T11:31:46;101230.22;;;27.34;41.27
46303;BME280;32029;51.358;5.628;2023-07-20T11:34:18;101236.41;;;27.31;40.88
46303;BME280;32029;51.358;5.628;2023-07-20T11:36:48;101235.59;;;27.26;41.83
46303;BME280;32029;51.358;5.628;2023-07-20T11:39:16;101218.41;;;27.22;41.75
46303;BME280;32029;51.358;5.628;2023-07-20T11:41:50;101221.78;;;27.29;41.13
46303;BME280;32029;51.358;5.628;2023-07-20T11:44:22;101227.97;;;27.26;41.52
46303;BME280;32029;51.358;5.628;2023-07-20T11:47:06;101228.84;;;27.22;41.80
46303;BME280;32029;51.358;5.628;2023-07-20T11:49:35;101197.09;;;27.01;41.64
46303;BME280;32029;51.358;5.628;2023-07-20T11:52:07;101227.47;;;27.19;42.26
46303;BME280;32029;51.358;5.628;2023-07-20T11:54:35;101178.50;;;27.05;42.66
46303;BME280;32029;51.358;5.628;2023-07-20T11:57:04;101211.03;;;27.36;41.54
46303;BME280;32029;51.358;5.628;2023-07-20T11:59:33;101190.81;;;27.24;41.58
46303;BME280;32029;51.358;5.628;2023-07-20T12:02:01;101212.13;;;27.41;42.15
46303;BME280;32029;51.358;5.628;2023-07-20T12:04:31;101211.25;;;27.45;41.86
46303;BME280;32029;51.358;5.628;2023-07-20T12:06:58;101197.75;;;27.42;42.36
46303;BME280;32029;51.358;5.628;2023-07-20T12:09:25;101210.97;;;27.47;41.65
46303;BME280;32029;51.358;5.628;2023-07-20T12:11:52;101206.47;;;27.46;41.27
46303;BME280;32029;51.358;5.628;2023-07-20T12:14:19;101159.88;;;27.09;41.82
46303;BME280;32029;51.358;5.628;2023-07-20T12:16:52;101212.97;;;27.46;41.88
46303;BME280;32029;51.358;5.628;2023-07-20T12:19:19;101216.63;;;27.47;42.16
46303;BME280;32029;51.358;5.628;2023-07-20T12:21:46;101202.28;;;27.38;42.74
46303;BME280;32029;51.358;5.628;2023-07-20T12:24:12;101217.72;;;27.51;42.83
46303;BME280;32029;51.358;5.628;2023-07-20T12:26:39;101213.19;;;27.55;42.92
46303;BME280;32029;51.358;5.628;2023-07-20T12:29:06;101190.94;;;27.48;43.43
46303;BME280;32029;51.358;5.628;2023-07-20T12:31:34;101213.06;;;27.70;43.13
46303;BME280;32029;51.358;5.628;2023-07-20T12:34:02;101208.56;;;27.74;42.84
46303;BME280;32029;51.358;5.628;2023-07-20T12:36:30;101141.97;;;27.44;41.87
46303;BME280;32029;51.358;5.628;2023-07-20T12:38:57;101205.63;;;27.90;41.29
46303;BME280;32029;51.358;5.628;2023-07-20T12:41:25;101202.19;;;27.98;41.13
46303;BME280;32029;51.358;5.628;2023-07-20T12:43:51;101194.63;;;27.88;41.36
46303;BME280;32029;51.358;5.628;2023-07-20T12:46:19;101184.16;;;27.94;41.63
46303;BME280;32029;51.358;5.628;2023-07-20T12:48:46;101210.44;;;28.18;41.74
46303;BME280;32029;51.358;5.628;2023-07-20T12:51:13;101176.66;;;28.13;41.47
46303;BME280;32029;51.358;5.628;2023-07-20T12:53:40;101205.19;;;28.36;40.68
46303;BME280;32029;51.358;5.628;2023-07-20T12:56:06;101196.72;;;28.36;40.51
46303;BME280;32029;51.358;5.628;2023-07-20T12:58:33;101179.94;;;28.20;39.34
46303;BME280;32029;51.358;5.628;2023-07-20T13:01:00;101179.56;;;28.03;39.56
46303;BME280;32029;51.358;5.628;2023-07-20T13:03:26;101204.41;;;28.01;40.43
46303;BME280;32029;51.358;5.628;2023-07-20T13:05:53;101178.09;;;27.76;40.52
46303;BME280;32029;51.358;5.628;2023-07-20T13:08:20;101183.19;;;27.74;40.74
46303;BME280;32029;51.358;5.628;2023-07-20T13:10:46;101185.50;;;27.62;40.39
46303;BME280;32029;51.358;5.628;2023-07-20T13:13:14;101182.19;;;27.55;40.36